createdAt,value
2023-03-26T00:01:38.423Z,9.90
2023-03-26T00:03:41.358Z,9.90
2023-03-26T00:05:45.579Z,9.90
2023-03-26T00:07:48.634Z,9.90
2023-03-26T00:09:53.344Z,9.80
2023-03-26T00:11:55.633Z,9.80
2023-03-26T00:13:57.968Z,9.80
2023-03-26T00:16:01.218Z,9.90
2023-03-26T00:18:03.798Z,9.90
2023-03-26T00:20:08.007Z,9.80
2023-03-26T00:22:14.227Z,9.90
2023-03-26T00:24:18.041Z,9.90
2023-03-26T00:26:19.742Z,9.90
2023-03-26T00:28:22.288Z,9.90
2023-03-26T00:30:24.226Z,9.90
2023-03-26T00:32:28.054Z,9.90
2023-03-26T00:34:34.310Z,10.00
2023-03-26T00:36:36.324Z,9.90
2023-03-26T00:38:39.097Z,10.00
2023-03-26T00:40:43.927Z,10.00
2023-03-26T00:42:45.743Z,10.00
2023-03-26T00:44:47.454Z,10.00
2023-03-26T00:46:51.709Z,10.00
2023-03-26T00:49:03.721Z,10.00
2023-03-26T00:51:06.424Z,10.00
2023-03-26T00:53:08.822Z,10.00
2023-03-26T00:55:10.669Z,10.00
2023-03-26T00:57:25.666Z,10.00
2023-03-26T00:59:31.788Z,10.00
2023-03-26T01:01:33.567Z,10.00
2023-03-26T01:03:38.588Z,10.10
2023-03-26T01:05:48.837Z,10.10
2023-03-26T01:07:51.527Z,10.10
2023-03-26T01:09:56.107Z,10.10
2023-03-26T01:11:59.316Z,10.10
2023-03-26T01:14:08.687Z,10.10
2023-03-26T01:16:26.938Z,10.10
2023-03-26T01:18:34.106Z,10.10
2023-03-26T01:20:46.470Z,10.10
2023-03-26T01:22:52.253Z,10.10
2023-03-26T01:24:56.472Z,10.10
2023-03-26T01:27:04.754Z,10.10
2023-03-26T01:29:12.853Z,10.10
2023-03-26T01:31:36.953Z,10.10
2023-03-26T01:33:47.595Z,10.10
2023-03-26T01:36:10.799Z,10.10
2023-03-26T01:38:35.443Z,10.10
2023-03-26T01:40:51.836Z,10.10
2023-03-26T01:42:56.818Z,10.10
2023-03-26T01:45:04.627Z,10.10
2023-03-26T01:47:07.831Z,10.10
2023-03-26T01:49:13.405Z,10.10
2023-03-26T01:51:28.035Z,10.10
2023-03-26T01:53:31.747Z,10.20
2023-03-26T01:56:15.158Z,10.10
2023-03-26T01:58:51.712Z,10.20
2023-03-26T02:01:30.255Z,10.20
2023-03-26T02:03:37.493Z,10.20
2023-03-26T02:05:44.298Z,10.20
2023-03-26T02:08:22.365Z,10.20
2023-03-26T02:10:31.809Z,10.20
2023-03-26T02:12:34.798Z,10.20
2023-03-26T02:14:36.730Z,10.10
2023-03-26T02:16:38.475Z,10.20
2023-03-26T02:18:40.628Z,10.10
2023-03-26T02:20:42.369Z,10.10
2023-03-26T02:22:47.438Z,10.10
2023-03-26T02:24:52.025Z,10.10
2023-03-26T02:26:55.550Z,10.10
2023-03-26T02:28:58.498Z,10.10
2023-03-26T02:31:01.773Z,10.20
2023-03-26T02:33:07.308Z,10.20
2023-03-26T02:35:15.649Z,10.10
2023-03-26T02:37:18.954Z,10.20
2023-03-26T02:39:26.619Z,10.20
2023-03-26T02:41:35.452Z,10.20
2023-03-26T02:43:41.832Z,10.20
2023-03-26T02:45:47.848Z,10.20
2023-03-26T02:48:09.548Z,10.20
2023-03-26T02:50:26.600Z,10.20
2023-03-26T02:52:59.032Z,10.20
2023-03-26T02:55:02.164Z,10.20
2023-03-26T02:57:04.098Z,10.20
2023-03-26T02:59:26.231Z,10.20
2023-03-26T03:01:54.439Z,10.30
2023-03-26T03:03:56.837Z,10.30
2023-03-26T03:06:09.636Z,10.30
2023-03-26T03:08:20.232Z,10.30
2023-03-26T03:11:00.718Z,10.30
2023-03-26T03:13:13.114Z,10.40
2023-03-26T03:15:14.988Z,10.40
2023-03-26T03:17:16.770Z,10.40
2023-03-26T03:19:18.483Z,10.40
2023-03-26T03:21:28.244Z,10.40
2023-03-26T03:23:32.285Z,10.40
2023-03-26T03:25:43.891Z,10.40
2023-03-26T03:27:45.797Z,10.40
2023-03-26T03:29:48.629Z,10.40
2023-03-26T03:32:19.762Z,10.50
2023-03-26T03:34:23.373Z,10.50
2023-03-26T03:36:27.947Z,10.50
2023-03-26T03:38:38.605Z,10.50
2023-03-26T03:40:40.887Z,10.50
2023-03-26T03:42:42.866Z,10.50
2023-03-26T03:44:47.800Z,10.50
2023-03-26T03:47:13.851Z,10.50
2023-03-26T03:49:16.374Z,10.50
2023-03-26T03:51:20.913Z,10.40
2023-03-26T03:53:31.835Z,10.40
2023-03-26T03:55:38.190Z,10.40
2023-03-26T03:57:41.460Z,10.40
2023-03-26T03:59:51.036Z,10.40
2023-03-26T04:01:53.257Z,10.40
2023-03-26T04:04:07.692Z,10.40
2023-03-26T04:06:35.485Z,10.40
2023-03-26T04:08:37.343Z,10.40
2023-03-26T04:10:43.609Z,10.40
2023-03-26T04:12:51.196Z,10.40
2023-03-26T04:14:56.775Z,10.40
2023-03-26T04:16:58.789Z,10.40
2023-03-26T04:19:03.789Z,10.40
2023-03-26T04:21:07.510Z,10.40
2023-03-26T04:23:13.966Z,10.40
2023-03-26T04:25:19.574Z,10.40
2023-03-26T04:27:37.925Z,10.40
2023-03-26T04:29:52.171Z,10.40
2023-03-26T04:32:06.434Z,10.40
2023-03-26T04:34:20.513Z,10.40
2023-03-26T04:36:32.058Z,10.50
2023-03-26T04:38:41.222Z,10.40
2023-03-26T04:40:47.315Z,10.50
2023-03-26T04:43:12.383Z,10.40
2023-03-26T04:45:37.250Z,10.40
2023-03-26T04:47:39.508Z,10.40
2023-03-26T04:49:42.657Z,10.40
2023-03-26T04:51:48.284Z,10.40
2023-03-26T04:54:12.675Z,10.40
2023-03-26T04:56:47.296Z,10.40
2023-03-26T04:58:50.299Z,10.40
2023-03-26T05:00:52.734Z,10.40
2023-03-26T05:02:57.546Z,10.30
2023-03-26T05:04:59.550Z,10.30
2023-03-26T05:07:05.865Z,10.30
2023-03-26T05:09:14.372Z,10.30
2023-03-26T05:11:48.578Z,10.30
2023-03-26T05:13:54.046Z,10.30
2023-03-26T05:15:56.215Z,10.30
2023-03-26T05:18:08.667Z,10.30
2023-03-26T05:20:22.441Z,10.30
2023-03-26T05:22:26.896Z,10.30
2023-03-26T05:24:50.426Z,10.30
2023-03-26T05:26:53.891Z,10.30
2023-03-26T05:28:58.509Z,10.30
2023-03-26T05:31:09.695Z,10.30
2023-03-26T05:33:18.307Z,10.30
2023-03-26T05:35:34.712Z,10.30
2023-03-26T05:37:38.746Z,10.30
2023-03-26T05:39:43.748Z,10.30
2023-03-26T05:42:07.686Z,10.30
2023-03-26T05:44:30.835Z,10.30
2023-03-26T05:46:37.993Z,10.40
2023-03-26T05:48:39.853Z,10.30
2023-03-26T05:50:42.368Z,10.40
2023-03-26T05:52:44.631Z,10.30
2023-03-26T05:54:58.409Z,10.30
2023-03-26T05:57:19.055Z,10.30
2023-03-26T05:59:50.737Z,10.30
2023-03-26T06:01:57.822Z,10.30
2023-03-26T06:04:23.520Z,10.30
2023-03-26T06:06:47.135Z,10.20
2023-03-26T06:09:01.889Z,10.20
2023-03-26T06:11:08.105Z,10.20
2023-03-26T06:13:17.786Z,10.20
2023-03-26T06:15:20.783Z,10.10
2023-03-26T06:17:28.142Z,10.10
2023-03-26T06:19:49.504Z,10.10
2023-03-26T06:22:01.279Z,10.10
2023-03-26T06:24:07.824Z,10.10
2023-03-26T06:26:12.290Z,10.10
2023-03-26T06:28:52.190Z,10.10
2023-03-26T06:31:11.749Z,10.10
2023-03-26T06:33:28.852Z,10.10
2023-03-26T06:35:31.419Z,10.10
2023-03-26T06:37:33.328Z,10.10
2023-03-26T06:39:36.927Z,10.10
2023-03-26T06:41:50.706Z,10.10
2023-03-26T06:44:11.122Z,10.10
2023-03-26T06:46:31.427Z,10.10
2023-03-26T06:48:51.983Z,10.10
2023-03-26T06:51:20.279Z,10.10
2023-03-26T06:53:40.430Z,10.10
2023-03-26T06:55:53.875Z,10.10
2023-03-26T06:58:33.800Z,10.10
2023-03-26T07:00:55.563Z,10.00
2023-03-26T07:03:23.403Z,10.00
2023-03-26T07:05:44.492Z,10.00
2023-03-26T07:08:06.362Z,10.00
2023-03-26T07:10:27.071Z,10.00
2023-03-26T07:12:47.517Z,10.00
2023-03-26T07:15:08.398Z,9.90
2023-03-26T07:17:30.386Z,9.90
2023-03-26T07:19:58.223Z,9.90
2023-03-26T07:22:01.989Z,9.90
2023-03-26T07:24:24.126Z,9.90
2023-03-26T07:26:50.302Z,9.80
2023-03-26T07:29:22.296Z,9.80
2023-03-26T07:31:54.225Z,9.80
2023-03-26T07:34:45.269Z,9.80
2023-03-26T07:37:12.871Z,9.80
2023-03-26T07:39:51.187Z,9.80
2023-03-26T07:42:59.884Z,9.80
2023-03-26T07:45:45.789Z,9.80
2023-03-26T07:48:18.398Z,9.80
2023-03-26T07:50:33.993Z,9.80
2023-03-26T07:52:49.264Z,9.80
2023-03-26T07:55:16.278Z,9.70
2023-03-26T07:57:52.754Z,9.80
2023-03-26T08:00:12.059Z,9.80
2023-03-26T08:02:59.091Z,9.80
2023-03-26T08:05:28.374Z,9.80
2023-03-26T08:08:08.661Z,9.80
2023-03-26T08:10:44.114Z,9.80
2023-03-26T08:12:59.272Z,9.80
2023-03-26T08:15:38.053Z,9.80
2023-03-26T08:17:53.241Z,9.80
2023-03-26T08:20:18.485Z,9.90
2023-03-26T08:22:34.195Z,9.90
2023-03-26T08:24:57.235Z,9.90
2023-03-26T08:27:22.434Z,9.90
2023-03-26T08:29:45.418Z,10.00
2023-03-26T08:31:49.324Z,10.00
2023-03-26T08:33:51.499Z,10.00
2023-03-26T08:35:53.359Z,10.10
2023-03-26T08:38:04.502Z,10.10
2023-03-26T08:40:09.767Z,10.10
2023-03-26T08:42:34.676Z,10.30
2023-03-26T08:44:54.790Z,10.10
2023-03-26T08:47:36.159Z,10.20
2023-03-26T08:49:56.423Z,10.30
2023-03-26T08:52:20.549Z,10.30
2023-03-26T08:54:37.293Z,10.30
2023-03-26T08:57:03.970Z,10.20
2023-03-26T08:59:29.459Z,10.30
2023-03-26T09:01:37.857Z,10.30
2023-03-26T09:04:17.052Z,10.30
2023-03-26T09:06:40.778Z,10.30
2023-03-26T09:09:18.869Z,10.20
2023-03-26T09:11:52.201Z,10.30
2023-03-26T09:13:58.742Z,10.30
2023-03-26T09:16:31.576Z,10.30
2023-03-26T09:18:53.503Z,10.20
2023-03-26T09:21:14.132Z,10.10
2023-03-26T09:23:52.561Z,10.10
2023-03-26T09:26:24.721Z,10.20
2023-03-26T09:28:41.328Z,10.10
2023-03-26T09:30:58.289Z,10.20
2023-03-26T09:33:18.969Z,10.30
2023-03-26T09:35:47.465Z,10.30
2023-03-26T09:38:18.479Z,10.40
2023-03-26T09:40:24.509Z,10.40
2023-03-26T09:42:34.209Z,10.50
2023-03-26T09:45:10.434Z,10.50
2023-03-26T09:47:23.971Z,10.60
2023-03-26T09:49:33.926Z,10.70
2023-03-26T09:51:51.852Z,10.80
2023-03-26T09:54:36.839Z,10.80
2023-03-26T09:56:58.453Z,10.90
2023-03-26T09:59:22.149Z,10.90
2023-03-26T10:01:38.840Z,11.00
2023-03-26T10:03:43.307Z,11.00
2023-03-26T10:05:57.928Z,11.00
2023-03-26T10:08:06.451Z,11.00
2023-03-26T10:10:21.286Z,11.10
2023-03-26T10:12:38.604Z,11.10
2023-03-26T10:15:23.980Z,11.10
2023-03-26T10:17:35.629Z,11.20
2023-03-26T10:20:02.339Z,11.20
2023-03-26T10:22:22.121Z,11.30
2023-03-26T10:25:09.182Z,11.30
2023-03-26T10:27:32.232Z,11.40
2023-03-26T10:29:39.768Z,11.50
2023-03-26T10:31:55.669Z,11.50
2023-03-26T10:34:28.399Z,11.50
2023-03-26T10:36:57.943Z,11.50
2023-03-26T10:39:36.534Z,11.50
2023-03-26T10:42:07.132Z,11.50
2023-03-26T10:44:45.750Z,11.50
2023-03-26T10:47:14.449Z,11.50
2023-03-26T10:49:39.633Z,11.50
2023-03-26T10:51:53.393Z,11.50
2023-03-26T10:54:29.918Z,11.40
2023-03-26T10:56:45.977Z,11.40
2023-03-26T10:58:49.985Z,11.30
2023-03-26T11:01:21.217Z,11.20
2023-03-26T11:03:33.311Z,11.30
2023-03-26T11:05:59.206Z,11.30
2023-03-26T11:08:06.790Z,11.30
2023-03-26T11:10:39.475Z,11.40
2023-03-26T11:12:52.107Z,11.50
2023-03-26T11:15:06.758Z,11.50
2023-03-26T11:17:52.853Z,11.60
2023-03-26T11:20:18.178Z,11.60
2023-03-26T11:22:47.566Z,11.60
2023-03-26T11:24:52.585Z,11.70
2023-03-26T11:27:17.450Z,11.70
2023-03-26T11:29:38.916Z,11.80
2023-03-26T11:32:01.086Z,11.80
2023-03-26T11:34:09.503Z,11.60
2023-03-26T11:36:17.162Z,11.60
2023-03-26T11:38:24.549Z,11.60
2023-03-26T11:40:35.790Z,11.50
2023-03-26T11:42:37.923Z,11.50
2023-03-26T11:44:44.080Z,11.50
2023-03-26T11:46:49.828Z,11.50
2023-03-26T11:49:02.026Z,11.40
2023-03-26T11:51:14.614Z,11.40
2023-03-26T11:53:19.233Z,11.40
2023-03-26T11:55:24.132Z,11.30
2023-03-26T11:57:33.201Z,11.30
2023-03-26T11:59:57.236Z,11.30
2023-03-26T12:02:06.142Z,11.40
2023-03-26T12:04:17.005Z,11.40
2023-03-26T12:06:28.871Z,11.40
2023-03-26T12:08:37.679Z,11.50
2023-03-26T12:10:43.081Z,11.60
2023-03-26T12:12:47.993Z,11.60
2023-03-26T12:14:52.880Z,11.80
2023-03-26T12:17:07.864Z,11.90
2023-03-26T12:19:19.783Z,12.00
2023-03-26T12:21:22.472Z,12.10
2023-03-26T12:23:44.882Z,12.20
2023-03-26T12:26:12.948Z,12.30
2023-03-26T12:28:15.602Z,12.40
2023-03-26T12:30:22.276Z,12.50
2023-03-26T12:32:39.123Z,12.50
2023-03-26T12:34:47.552Z,12.60
2023-03-26T12:36:55.215Z,12.60
2023-03-26T12:39:16.536Z,12.60
2023-03-26T12:43:40.262Z,12.60
2023-03-26T12:44:50.183Z,12.60
2023-03-26T12:47:55.363Z,12.60
2023-03-26T12:49:08.976Z,12.60
2023-03-26T12:51:26.258Z,12.60
2023-03-26T12:53:46.869Z,12.50
2023-03-26T12:56:01.823Z,12.60
2023-03-26T12:58:14.735Z,12.50
2023-03-26T13:00:35.870Z,12.50
2023-03-26T13:03:11.874Z,12.50
2023-03-26T13:05:28.448Z,12.60
2023-03-26T13:07:51.792Z,12.50
2023-03-26T13:10:22.654Z,12.50
2023-03-26T13:12:40.771Z,12.50
2023-03-26T13:14:47.751Z,12.50
2023-03-26T13:17:04.732Z,12.50
2023-03-26T13:19:23.726Z,12.50
2023-03-26T13:21:57.609Z,12.50
2023-03-26T13:24:17.101Z,12.60
2023-03-26T13:26:24.027Z,12.60
2023-03-26T13:29:01.347Z,12.60
2023-03-26T13:31:15.268Z,12.60
2023-03-26T13:33:40.979Z,12.70
2023-03-26T13:36:19.101Z,12.80
2023-03-26T13:39:00.783Z,12.90
2023-03-26T13:41:18.702Z,12.90
2023-03-26T13:43:45.545Z,13.00
2023-03-26T13:45:55.633Z,13.10
2023-03-26T13:47:59.633Z,13.10
2023-03-26T13:50:19.016Z,13.10
2023-03-26T13:52:32.992Z,13.10
2023-03-26T13:54:54.594Z,13.10
2023-03-26T13:57:15.237Z,13.00
2023-03-26T13:59:29.686Z,12.90
2023-03-26T14:01:48.700Z,12.80
2023-03-26T14:04:36.838Z,12.70
2023-03-26T14:06:58.608Z,12.70
2023-03-26T14:09:23.070Z,12.60
2023-03-26T14:11:50.805Z,12.60
2023-03-26T14:14:26.472Z,12.60
2023-03-26T14:16:46.915Z,12.60
2023-03-26T14:19:01.001Z,12.60
2023-03-26T14:21:40.719Z,12.60
2023-03-26T14:23:42.627Z,12.60
2023-03-26T14:26:26.485Z,12.50
2023-03-26T14:29:09.766Z,12.60
2023-03-26T14:31:49.675Z,12.40
2023-03-26T14:34:14.694Z,12.30
2023-03-26T14:36:34.578Z,12.10
2023-03-26T14:38:59.094Z,11.90
2023-03-26T14:41:33.308Z,11.70
2023-03-26T14:43:52.867Z,11.70
2023-03-26T14:46:32.418Z,11.50
2023-03-26T14:48:36.745Z,11.40
2023-03-26T14:50:47.180Z,11.30
2023-03-26T14:53:01.139Z,11.20
2023-03-26T14:55:13.023Z,11.10
2023-03-26T14:57:52.475Z,10.90
2023-03-26T15:00:18.056Z,11.00
2023-03-26T15:02:28.466Z,11.10
2023-03-26T15:04:55.453Z,11.00
2023-03-26T15:07:23.832Z,11.10
2023-03-26T15:09:56.876Z,11.10
2023-03-26T15:12:14.357Z,11.10
2023-03-26T15:14:44.826Z,11.00
2023-03-26T15:17:24.279Z,11.10
2023-03-26T15:20:26.035Z,11.10
2023-03-26T15:23:01.312Z,11.10
2023-03-26T15:25:19.044Z,11.10
2023-03-26T15:27:58.384Z,11.10
2023-03-26T15:30:29.405Z,11.10
2023-03-26T15:32:52.527Z,11.10
2023-03-26T15:35:16.046Z,11.10
2023-03-26T15:38:08.261Z,11.10
2023-03-26T15:40:33.936Z,11.20
2023-03-26T15:43:04.261Z,11.10
2023-03-26T15:45:30.700Z,11.10
2023-03-26T15:47:50.456Z,11.10
2023-03-26T15:50:08.598Z,11.10
2023-03-26T15:52:27.064Z,11.10
2023-03-26T15:55:04.429Z,11.10
2023-03-26T15:57:28.627Z,11.10
2023-03-26T15:59:36.976Z,11.10
2023-03-26T16:01:47.787Z,11.00
2023-03-26T16:04:01.684Z,11.10
2023-03-26T16:06:21.854Z,11.20
2023-03-26T16:08:39.091Z,11.20
2023-03-26T16:10:56.475Z,11.20
2023-03-26T16:13:20.172Z,11.20
2023-03-26T16:15:35.063Z,11.30
2023-03-26T16:18:05.100Z,11.30
2023-03-26T16:20:25.963Z,11.30
2023-03-26T16:22:42.923Z,11.30
2023-03-26T16:25:26.554Z,11.20
2023-03-26T16:27:32.112Z,11.20
2023-03-26T16:29:56.566Z,11.20
2023-03-26T16:32:10.676Z,11.10
2023-03-26T16:34:23.823Z,11.10
2023-03-26T16:36:35.664Z,11.10
2023-03-26T16:38:54.792Z,11.10
2023-03-26T16:41:16.869Z,11.10
2023-03-26T16:43:33.508Z,11.00
2023-03-26T16:46:29.535Z,11.00
2023-03-26T16:49:07.714Z,11.00
2023-03-26T16:51:16.888Z,11.00
2023-03-26T16:53:34.593Z,10.90
2023-03-26T16:55:55.446Z,10.90
2023-03-26T16:58:04.572Z,10.90
2023-03-26T17:00:35.686Z,10.90
2023-03-26T17:02:52.099Z,10.80
2023-03-26T17:05:20.903Z,10.80
2023-03-26T17:07:43.245Z,10.80
2023-03-26T17:10:05.715Z,10.80
2023-03-26T17:12:22.006Z,10.80
2023-03-26T17:14:50.788Z,10.70
2023-03-26T17:17:07.378Z,10.70
2023-03-26T17:19:29.581Z,10.70
2023-03-26T17:21:46.988Z,10.60
2023-03-26T17:24:15.290Z,10.70
2023-03-26T17:26:49.051Z,10.70
2023-03-26T17:29:17.357Z,10.70
2023-03-26T17:31:45.464Z,10.70
2023-03-26T17:33:47.933Z,10.60
2023-03-26T17:36:12.134Z,10.60
2023-03-26T17:38:34.045Z,10.60
2023-03-26T17:40:49.038Z,10.70
2023-03-26T17:43:11.493Z,10.70
2023-03-26T17:45:28.859Z,10.70
2023-03-26T17:48:12.455Z,10.60
2023-03-26T17:50:26.530Z,10.60
2023-03-26T17:52:53.398Z,10.60
2023-03-26T17:54:56.926Z,10.60
2023-03-26T17:57:05.130Z,10.60
2023-03-26T17:59:11.534Z,10.50
2023-03-26T18:01:42.081Z,10.50
2023-03-26T18:03:56.701Z,10.60
2023-03-26T18:06:07.864Z,10.50
2023-03-26T18:08:44.282Z,10.50
2023-03-26T18:11:03.410Z,10.50
2023-03-26T18:13:40.659Z,10.50
2023-03-26T18:15:49.510Z,10.40
2023-03-26T18:18:06.232Z,10.40
2023-03-26T18:20:18.678Z,10.40
2023-03-26T18:22:27.627Z,10.40
2023-03-26T18:24:43.084Z,10.30
2023-03-26T18:26:54.844Z,10.30
2023-03-26T18:29:19.002Z,10.30
2023-03-26T18:31:24.719Z,10.30
2023-03-26T18:33:26.915Z,10.30
2023-03-26T18:35:42.302Z,10.20
2023-03-26T18:37:46.028Z,10.20
2023-03-26T18:40:19.166Z,10.20
2023-03-26T18:42:23.477Z,10.20
2023-03-26T18:44:27.956Z,10.20
2023-03-26T18:46:31.780Z,10.10
2023-03-26T18:48:35.750Z,10.20
2023-03-26T18:50:45.006Z,10.20
2023-03-26T18:52:46.804Z,10.20
2023-03-26T18:54:52.343Z,10.20
2023-03-26T18:56:55.182Z,10.20
2023-03-26T18:59:02.486Z,10.10
2023-03-26T19:01:16.997Z,10.10
2023-03-26T19:03:26.885Z,10.20
2023-03-26T19:05:31.970Z,10.20
2023-03-26T19:07:36.384Z,10.20
2023-03-26T19:09:38.727Z,10.30
2023-03-26T19:11:41.554Z,10.20
2023-03-26T19:13:43.483Z,10.20
2023-03-26T19:15:47.693Z,10.20
2023-03-26T19:17:55.798Z,10.20
2023-03-26T19:19:58.209Z,10.20
2023-03-26T19:22:01.337Z,10.20
2023-03-26T19:24:04.257Z,10.20
2023-03-26T19:26:10.311Z,10.20
2023-03-26T19:28:21.655Z,10.20
2023-03-26T19:30:34.434Z,10.20
2023-03-26T19:32:36.273Z,10.20
2023-03-26T19:34:41.702Z,10.20
2023-03-26T19:37:04.756Z,10.20
2023-03-26T19:39:12.740Z,10.20
2023-03-26T19:41:26.475Z,10.30
2023-03-26T19:43:28.839Z,10.30
2023-03-26T19:45:34.710Z,10.20
2023-03-26T19:47:50.028Z,10.20
2023-03-26T19:50:01.259Z,10.20
2023-03-26T19:52:05.410Z,10.20
2023-03-26T19:54:16.201Z,10.20
2023-03-26T19:56:20.664Z,10.20
2023-03-26T19:58:22.619Z,10.20
2023-03-26T20:00:24.250Z,10.20
2023-03-26T20:02:27.461Z,10.20
2023-03-26T20:04:32.415Z,10.20
2023-03-26T20:06:43.773Z,10.20
2023-03-26T20:08:46.546Z,10.20
2023-03-26T20:10:48.197Z,10.20
2023-03-26T20:12:49.951Z,10.30
2023-03-26T20:14:51.677Z,10.20
2023-03-26T20:16:53.656Z,10.20
2023-03-26T20:18:57.322Z,10.20
2023-03-26T20:20:59.068Z,10.20
2023-03-26T20:23:03.795Z,10.20
2023-03-26T20:25:31.127Z,10.20
2023-03-26T20:27:33.236Z,10.30
2023-03-26T20:29:36.500Z,10.20
2023-03-26T20:31:39.589Z,10.20
2023-03-26T20:33:41.313Z,10.20
2023-03-26T20:35:43.455Z,10.20
2023-03-26T20:37:45.864Z,10.20
2023-03-26T20:39:47.538Z,10.20
2023-03-26T20:41:50.966Z,10.20
2023-03-26T20:43:54.435Z,10.10
2023-03-26T20:45:58.698Z,10.10
2023-03-26T20:48:05.240Z,10.10
2023-03-26T20:50:09.837Z,10.10
2023-03-26T20:52:13.738Z,10.10
2023-03-26T20:54:24.463Z,10.10
2023-03-26T20:56:28.741Z,10.10
2023-03-26T20:58:32.378Z,10.10
2023-03-26T21:00:37.473Z,10.00
2023-03-26T21:02:41.272Z,10.00
2023-03-26T21:04:49.490Z,10.00
2023-03-26T21:06:53.354Z,10.00
2023-03-26T21:08:57.646Z,10.00
2023-03-26T21:11:01.981Z,10.00
2023-03-26T21:13:33.949Z,10.00
2023-03-26T21:15:36.275Z,10.00
2023-03-26T21:17:38.518Z,10.00
2023-03-26T21:19:40.608Z,9.90
2023-03-26T21:22:25.747Z,10.00
2023-03-26T21:25:18.513Z,10.00
2023-03-26T21:27:40.661Z,10.00
2023-03-26T21:29:42.876Z,10.00
2023-03-26T21:31:44.942Z,9.90
2023-03-26T21:33:48.062Z,10.00
2023-03-26T21:35:51.646Z,10.00
2023-03-26T21:37:57.530Z,10.00
2023-03-26T21:40:01.804Z,10.00
2023-03-26T21:42:06.418Z,10.00
2023-03-26T21:44:08.492Z,9.90
2023-03-26T21:46:11.112Z,9.90
2023-03-26T21:48:13.108Z,9.90
2023-03-26T21:50:21.900Z,9.90
2023-03-26T21:52:25.647Z,10.00
2023-03-26T21:54:30.750Z,10.00
2023-03-26T21:56:53.160Z,9.90
2023-03-26T21:59:08.702Z,9.90
2023-03-26T22:01:35.737Z,9.90
2023-03-26T22:04:02.649Z,9.90
2023-03-26T22:06:17.543Z,9.90
2023-03-26T22:08:38.936Z,9.80
2023-03-26T22:10:40.821Z,9.80
2023-03-26T22:12:42.571Z,9.80
2023-03-26T22:14:44.874Z,9.70
2023-03-26T22:16:49.265Z,9.70
2023-03-26T22:18:52.759Z,9.70
2023-03-26T22:20:54.746Z,9.70
2023-03-26T22:22:56.791Z,9.60
2023-03-26T22:25:01.523Z,9.60
2023-03-26T22:27:03.773Z,9.60
2023-03-26T22:29:05.701Z,9.60
2023-03-26T22:31:08.696Z,9.60
2023-03-26T22:33:14.320Z,9.50
2023-03-26T22:35:16.568Z,9.50
2023-03-26T22:37:23.455Z,9.50
2023-03-26T22:39:25.132Z,9.50
2023-03-26T22:41:29.840Z,9.50
2023-03-26T22:43:31.594Z,9.50
2023-03-26T22:45:37.454Z,9.50
2023-03-26T22:47:40.085Z,9.40
2023-03-26T22:49:44.261Z,9.40
2023-03-26T22:51:45.994Z,9.40
2023-03-26T22:53:51.151Z,9.40
2023-03-26T22:55:52.867Z,9.40
2023-03-26T22:57:54.540Z,9.30
2023-03-26T22:59:56.302Z,9.30
2023-03-26T23:01:58.455Z,9.30
2023-03-26T23:04:00.220Z,9.30
2023-03-26T23:06:04.503Z,9.20
2023-03-26T23:08:07.631Z,9.20
2023-03-26T23:10:12.311Z,9.20
2023-03-26T23:12:13.978Z,9.20
2023-03-26T23:14:16.455Z,9.10
2023-03-26T23:16:19.724Z,9.10
2023-03-26T23:18:24.417Z,9.10
2023-03-26T23:20:29.115Z,9.00
2023-03-26T23:22:33.183Z,9.00
2023-03-26T23:24:34.908Z,9.00
2023-03-26T23:26:49.528Z,8.90
2023-03-26T23:28:52.614Z,8.90
2023-03-26T23:30:54.920Z,8.90
2023-03-26T23:32:57.196Z,8.80
2023-03-26T23:35:01.386Z,8.80
2023-03-26T23:37:03.575Z,8.80
2023-03-26T23:39:05.278Z,8.80
2023-03-26T23:41:07.151Z,8.80
2023-03-26T23:43:09.304Z,8.70
2023-03-26T23:45:12.135Z,8.80
2023-03-26T23:47:19.419Z,8.70
2023-03-26T23:49:24.177Z,8.70
2023-03-26T23:51:32.873Z,8.70
2023-03-26T23:53:35.311Z,8.70
2023-03-26T23:55:37.912Z,8.70
2023-03-26T23:57:40.458Z,8.70
2023-03-26T23:59:42.125Z,8.70
